Time;durP1;ratioP1;P1;durP2;ratioP2;P2;SDS_P1;SDS_P2;PMS_P1;PMS_P2;Temp;Humidity;BMP_temperature;BMP_pressure;BME280_temperature;BME280_humidity;BME280_pressure;Samples;Min_cycle;Max_cycle;Signal;HPM_P1;HPM_P2
2023/11/29 00:00:13;;;;;;;5.63;5.03;;;3.90;99.90;;;;;;5065020;28;20228;-60
2023/11/29 00:02:41;;;;;;;5.93;4.97;;;4.00;99.90;;;;;;5064133;28;20217;-60
2023/11/29 00:05:10;;;;;;;5.90;5.30;;;4.00;99.90;;;;;;5061563;28;20252;-60
2023/11/29 00:07:37;;;;;;;5.67;5.17;;;4.10;99.90;;;;;;5061882;28;20216;-60
2023/11/29 00:10:05;;;;;;;5.77;5.23;;;4.10;99.90;;;;;;5064967;28;20292;-61
2023/11/29 00:12:31;;;;;;;5.67;5.17;;;4.10;99.90;;;;;;5065057;28;20209;-60
2023/11/29 00:14:58;;;;;;;5.30;4.80;;;4.10;99.90;;;;;;5061251;28;20225;-60
2023/11/29 00:17:25;;;;;;;5.90;5.30;;;4.10;99.90;;;;;;5061751;28;20202;-59
2023/11/29 00:19:54;;;;;;;5.50;4.97;;;4.20;99.90;;;;;;5064104;28;20282;-60
2023/11/29 00:22:21;;;;;;;5.40;4.90;;;4.10;99.90;;;;;;5064552;28;20254;-60
2023/11/29 00:24:48;;;;;;;5.70;5.17;;;4.10;99.90;;;;;;5062644;28;20702;-59
2023/11/29 00:27:15;;;;;;;6.33;5.50;;;4.00;99.90;;;;;;5061131;28;20205;-59
2023/11/29 00:29:42;;;;;;;5.73;5.20;;;3.90;99.90;;;;;;5062317;28;20212;-60
2023/11/29 00:32:09;;;;;;;7.30;5.03;;;4.00;99.90;;;;;;5064584;28;20201;-60
2023/11/29 00:34:35;;;;;;;5.20;4.70;;;3.90;99.90;;;;;;5064529;28;20288;-60
2023/11/29 00:37:05;;;;;;;5.63;5.13;;;3.90;99.90;;;;;;5061166;28;20204;-60
2023/11/29 00:39:32;;;;;;;5.40;4.90;;;3.90;99.90;;;;;;5060539;28;20302;-60
2023/11/29 00:41:59;;;;;;;5.83;5.27;;;3.90;99.90;;;;;;5064183;28;20292;-61
2023/11/29 00:44:26;;;;;;;6.03;5.17;;;3.90;99.90;;;;;;5064449;28;20307;-61
2023/11/29 00:46:53;;;;;;;6.80;5.07;;;3.80;99.90;;;;;;5061643;28;20204;-62
2023/11/29 00:49:19;;;;;;;5.97;4.77;;;3.70;99.90;;;;;;5061093;28;20201;-60
2023/11/29 00:51:46;;;;;;;5.73;5.23;;;3.70;99.90;;;;;;5062211;28;20205;-60
2023/11/29 00:54:14;;;;;;;5.90;4.70;;;3.50;99.90;;;;;;5064196;28;20225;-60
2023/11/29 00:56:41;;;;;;;5.90;5.27;;;3.50;99.90;;;;;;5063447;28;20593;-61
2023/11/29 00:59:07;;;;;;;6.03;5.27;;;3.40;99.90;;;;;;5060602;28;20263;-60
2023/11/29 01:01:34;;;;;;;6.77;5.80;;;3.50;99.90;;;;;;5060717;28;20700;-60
2023/11/29 01:04:02;;;;;;;5.93;5.40;;;3.50;99.90;;;;;;5060946;28;20213;-61
2023/11/29 01:06:30;;;;;;;5.53;5.03;;;3.60;99.90;;;;;;5060562;28;20233;-61
2023/11/29 01:08:57;;;;;;;5.80;5.20;;;3.50;99.90;;;;;;5063198;28;20205;-60
2023/11/29 01:11:25;;;;;;;6.10;5.50;;;3.50;99.90;;;;;;5063715;28;20236;-60
2023/11/29 01:13:52;;;;;;;6.63;6.03;;;3.50;99.90;;;;;;5061197;28;20236;-60
2023/11/29 01:16:18;;;;;;;6.40;5.23;;;3.50;99.90;;;;;;5060535;28;20208;-60
2023/11/29 01:18:45;;;;;;;6.50;5.90;;;3.40;99.90;;;;;;5061467;28;20236;-60
2023/11/29 01:21:12;;;;;;;6.30;5.67;;;3.40;99.90;;;;;;5063720;28;20209;-61
2023/11/29 01:23:39;;;;;;;6.40;5.80;;;3.30;99.90;;;;;;5063198;28;20193;-60
2023/11/29 01:26:06;;;;;;;6.57;5.93;;;3.30;99.90;;;;;;5059822;28;20225;-60
2023/11/29 01:28:34;;;;;;;6.90;6.20;;;3.30;99.90;;;;;;5059884;28;20202;-60
2023/11/29 01:31:05;;;;;;;7.73;6.37;;;3.30;99.90;;;;;;5063645;28;20205;-60
2023/11/29 01:33:32;;;;;;;8.03;6.17;;;3.40;99.90;;;;;;5063468;28;20653;-60
2023/11/29 01:35:59;;;;;;;5.93;5.40;;;3.50;99.90;;;;;;5060037;28;20227;-60
2023/11/29 01:38:25;;;;;;;6.17;5.57;;;3.50;99.90;;;;;;5060002;28;20201;-60
2023/11/29 01:40:52;;;;;;;6.20;5.60;;;3.50;99.90;;;;;;5061735;28;20205;-60
2023/11/29 01:43:19;;;;;;;5.77;5.17;;;3.50;99.90;;;;;;5063387;28;20193;-60
2023/11/29 01:45:47;;;;;;;5.90;5.13;;;3.50;99.90;;;;;;5061798;28;20224;-60
2023/11/29 01:48:14;;;;;;;5.57;5.07;;;3.50;99.90;;;;;;5059910;28;20198;-60
2023/11/29 01:50:40;;;;;;;5.70;5.20;;;3.60;99.90;;;;;;5059730;28;20210;-59
2023/11/29 01:53:07;;;;;;;5.87;5.27;;;3.60;99.90;;;;;;5062428;28;20675;-60
2023/11/29 01:55:35;;;;;;;5.37;4.87;;;3.60;99.90;;;;;;5062940;28;20221;-60
2023/11/29 01:58:03;;;;;;;5.67;5.10;;;3.60;99.90;;;;;;5051374;28;20229;-60
2023/11/29 02:00:29;;;;;;;5.43;4.93;;;3.60;99.90;;;;;;5059688;28;20201;-60
2023/11/29 02:02:57;;;;;;;6.27;5.47;;;3.70;99.90;;;;;;5062022;28;20265;-60
2023/11/29 02:05:24;;;;;;;6.30;5.67;;;3.80;99.90;;;;;;5063053;28;20631;-60
2023/11/29 02:07:51;;;;;;;6.13;5.53;;;3.80;99.90;;;;;;5060687;28;20278;-59
2023/11/29 02:10:18;;;;;;;5.93;5.20;;;3.80;99.90;;;;;;5059591;28;20208;-60
2023/11/29 02:12:45;;;;;;;6.30;5.70;;;3.80;99.90;;;;;;5060575;28;20205;-60
2023/11/29 02:15:11;;;;;;;5.93;5.33;;;3.80;99.90;;;;;;5062598;28;20283;-60
2023/11/29 02:17:38;;;;;;;6.10;5.50;;;3.80;99.90;;;;;;5062584;28;20212;-60
2023/11/29 02:20:07;;;;;;;7.10;5.13;;;3.80;99.90;;;;;;5059321;28;20208;-60
2023/11/29 02:22:37;;;;;;;6.50;5.83;;;3.80;99.90;;;;;;5059285;28;20332;-60
2023/11/29 02:25:05;;;;;;;6.27;5.67;;;3.90;99.90;;;;;;5050926;28;20300;-60
2023/11/29 02:27:32;;;;;;;6.40;5.40;;;3.90;99.90;;;;;;5059257;28;20232;-59
2023/11/29 02:29:58;;;;;;;6.53;5.70;;;3.80;99.90;;;;;;5062050;28;20213;-60
2023/11/29 02:32:25;;;;;;;7.43;5.90;;;3.60;99.90;;;;;;5062878;28;20217;-58
2023/11/29 02:34:52;;;;;;;6.47;5.50;;;3.60;99.90;;;;;;5060485;28;20232;-60
2023/11/29 02:37:19;;;;;;;5.87;5.27;;;3.60;99.90;;;;;;5059082;28;20548;-62
2023/11/29 02:39:45;;;;;;;6.77;6.03;;;3.50;99.90;;;;;;5060491;28;20617;-60
2023/11/29 02:42:13;;;;;;;6.27;5.67;;;3.60;99.90;;;;;;5062594;28;20201;-60
2023/11/29 02:44:40;;;;;;;6.30;5.70;;;3.70;99.90;;;;;;5062134;28;20652;-61
2023/11/29 02:47:07;;;;;;;7.63;5.70;;;3.70;99.90;;;;;;5059100;28;20212;-60
2023/11/29 02:49:34;;;;;;;6.50;5.80;;;3.70;99.90;;;;;;5059674;28;20212;-61
2023/11/29 02:52:01;;;;;;;6.80;6.10;;;3.60;99.90;;;;;;5062162;28;20584;-60
2023/11/29 02:54:27;;;;;;;6.33;5.73;;;3.60;99.90;;;;;;5062542;28;20225;-60
2023/11/29 02:56:54;;;;;;;7.77;6.10;;;3.50;99.90;;;;;;5060148;28;20205;-59
2023/11/29 02:59:22;;;;;;;6.67;5.97;;;3.50;99.90;;;;;;5059182;28;20202;-60
2023/11/29 03:01:49;;;;;;;6.90;6.17;;;3.50;99.90;;;;;;5060209;28;20264;-61
2023/11/29 03:04:15;;;;;;;6.67;5.97;;;3.50;99.90;;;;;;5065368;28;20217;-61
2023/11/29 03:06:42;;;;;;;7.60;6.80;;;3.50;99.90;;;;;;5065698;28;20209;-60
2023/11/29 03:09:09;;;;;;;7.17;6.27;;;3.40;99.90;;;;;;5062476;28;20557;-60
2023/11/29 03:11:35;;;;;;;6.87;6.17;;;3.40;99.90;;;;;;5062712;28;20255;-61
2023/11/29 03:14:02;;;;;;;6.70;6.10;;;3.40;99.90;;;;;;5065480;28;20277;-61
2023/11/29 03:16:31;;;;;;;10.67;6.63;;;3.40;99.90;;;;;;5066024;28;20252;-60
2023/11/29 03:18:57;;;;;;;7.00;6.10;;;3.40;99.90;;;;;;5063683;28;20205;-60
2023/11/29 03:21:24;;;;;;;7.53;6.40;;;3.40;99.90;;;;;;5062558;28;20198;-60
2023/11/29 03:23:51;;;;;;;6.80;6.10;;;3.40;99.90;;;;;;5063840;28;20197;-60
2023/11/29 03:26:17;;;;;;;9.13;6.20;;;3.50;99.90;;;;;;5065826;28;20201;-61
2023/11/29 03:28:44;;;;;;;7.40;6.70;;;3.50;99.90;;;;;;5065327;28;20236;-62
2023/11/29 03:31:11;;;;;;;7.90;6.13;;;3.50;99.90;;;;;;5062239;28;20209;-60
2023/11/29 03:33:39;;;;;;;7.37;6.47;;;3.50;99.90;;;;;;5062360;28;20583;-60
2023/11/29 03:36:07;;;;;;;6.40;5.73;;;3.50;99.90;;;;;;5062077;28;20244;-60
2023/11/29 03:38:34;;;;;;;6.60;5.90;;;3.50;99.90;;;;;;5062222;28;20201;-60
2023/11/29 03:41:00;;;;;;;8.30;6.43;;;3.40;99.90;;;;;;5064768;28;20550;-60
2023/11/29 03:43:27;;;;;;;6.67;5.80;;;3.50;99.90;;;;;;5065506;28;20200;-60
2023/11/29 03:45:54;;;;;;;7.30;6.53;;;3.50;99.90;;;;;;5062959;28;20221;-61
2023/11/29 03:48:21;;;;;;;6.73;6.00;;;3.40;99.90;;;;;;5062184;28;20372;-59
2023/11/29 03:50:49;;;;;;;6.13;5.53;;;3.40;99.90;;;;;;5063084;28;20216;-60
2023/11/29 03:53:15;;;;;;;6.70;5.80;;;3.50;99.90;;;;;;5065051;28;20200;-60
2023/11/29 03:55:42;;;;;;;6.47;5.53;;;3.40;99.90;;;;;;5064944;28;20233;-61
2023/11/29 03:58:09;;;;;;;6.57;5.93;;;3.40;99.90;;;;;;5061757;28;20263;-62
2023/11/29 04:00:35;;;;;;;6.67;5.47;;;3.50;99.90;;;;;;5061896;28;20251;-59
2023/11/29 04:03:02;;;;;;;5.90;5.30;;;3.50;99.90;;;;;;5064455;28;20251;-61
2023/11/29 04:05:29;;;;;;;6.83;5.83;;;3.60;99.90;;;;;;5065012;28;20217;-60
2023/11/29 04:07:57;;;;;;;6.20;5.47;;;3.60;99.90;;;;;;5062680;28;20212;-59
2023/11/29 04:10:23;;;;;;;6.97;5.40;;;3.70;99.90;;;;;;5061758;28;20228;-60
2023/11/29 04:12:50;;;;;;;37.50;29.67;;;3.70;99.90;;;;;;5062613;28;20220;-61
2023/11/29 04:15:17;;;;;;;7.60;5.57;;;3.70;99.90;;;;;;5073184;22;20229;-57
2023/11/29 04:17:44;;;;;;;5.97;5.37;;;3.50;99.90;;;;;;5044033;28;20296;-56
2023/11/29 04:20:11;;;;;;;8.43;5.70;;;3.40;99.90;;;;;;5044842;28;20202;-55
2023/11/29 04:22:38;;;;;;;7.87;6.63;;;3.20;99.90;;;;;;5044435;28;20280;-55
2023/11/29 04:25:08;;;;;;;20.23;11.90;;;3.00;99.90;;;;;;5041122;28;20306;-57
2023/11/29 04:27:34;;;;;;;19.23;11.80;;;2.90;99.90;;;;;;5040808;28;20206;-55
2023/11/29 04:30:02;;;;;;;6.80;6.00;;;2.60;99.90;;;;;;5043741;28;20215;-55
2023/11/29 04:32:28;;;;;;;7.17;5.30;;;2.60;99.90;;;;;;5044437;28;20224;-56
2023/11/29 04:34:55;;;;;;;5.80;5.20;;;2.50;99.90;;;;;;5042198;28;20257;-55
2023/11/29 04:37:22;;;;;;;6.77;5.40;;;2.40;99.90;;;;;;5040449;28;20205;-56
2023/11/29 04:39:49;;;;;;;6.13;5.50;;;2.30;99.90;;;;;;5041435;28;20210;-56
2023/11/29 04:42:17;;;;;;;5.97;5.27;;;2.30;99.90;;;;;;5043963;28;20336;-55
2023/11/29 04:44:44;;;;;;;6.33;5.63;;;2.20;99.90;;;;;;5043636;28;20279;-57
2023/11/29 04:47:11;;;;;;;8.17;5.60;;;2.20;99.90;;;;;;5040947;28;20209;-56
2023/11/29 04:49:39;;;;;;;5.70;4.73;;;2.20;99.90;;;;;;5041146;28;20293;-56
2023/11/29 04:52:06;;;;;;;6.00;5.30;;;2.40;99.90;;;;;;5043876;28;20206;-56
2023/11/29 04:54:33;;;;;;;5.90;5.30;;;2.50;99.90;;;;;;5044084;28;20236;-56
2023/11/29 04:57:00;;;;;;;6.73;5.33;;;2.50;99.90;;;;;;5041522;28;20205;-56
2023/11/29 04:59:28;;;;;;;7.97;5.50;;;2.60;99.90;;;;;;5040599;28;20260;-56
2023/11/29 05:01:54;;;;;;;6.73;4.90;;;2.80;99.90;;;;;;5041924;28;20232;-56
2023/11/29 05:04:21;;;;;;;6.03;5.33;;;2.90;99.90;;;;;;5043963;28;20314;-55
2023/11/29 05:06:48;;;;;;;5.93;5.00;;;2.90;99.90;;;;;;5042813;28;20209;-55
2023/11/29 05:09:15;;;;;;;5.93;4.80;;;3.00;99.90;;;;;;5040243;28;20591;-57
2023/11/29 05:11:41;;;;;;;6.80;5.30;;;3.10;99.90;;;;;;5040502;28;20206;-55
2023/11/29 05:14:08;;;;;;;7.37;4.73;;;3.10;99.90;;;;;;5043832;28;20198;-55
2023/11/29 05:16:36;;;;;;;6.97;5.00;;;3.20;99.90;;;;;;5043389;28;20209;-56
2023/11/29 05:19:03;;;;;;;5.77;4.87;;;3.20;99.90;;;;;;5040659;28;20667;-56
2023/11/29 05:21:30;;;;;;;5.20;4.70;;;3.30;99.90;;;;;;5039888;28;20709;-56
2023/11/29 05:23:56;;;;;;;5.90;4.67;;;3.30;99.90;;;;;;5041919;28;20344;-56
2023/11/29 05:26:24;;;;;;;5.60;5.00;;;3.30;99.90;;;;;;5043134;28;20598;-55
2023/11/29 05:28:51;;;;;;;5.37;4.87;;;3.30;99.90;;;;;;5042534;28;20646;-56
2023/11/29 05:31:18;;;;;;;6.13;4.87;;;3.30;99.90;;;;;;5040015;28;20207;-56
2023/11/29 05:33:48;;;;;;;7.43;5.37;;;3.30;99.90;;;;;;5039799;28;20210;-55
2023/11/29 05:36:15;;;;;;;5.80;5.20;;;3.30;99.90;;;;;;5042646;28;20271;-57
2023/11/29 05:38:42;;;;;;;4.97;4.43;;;3.40;99.90;;;;;;5043107;28;20212;-56
2023/11/29 05:41:10;;;;;;;5.53;4.90;;;3.50;99.90;;;;;;5039621;28;20198;-56
2023/11/29 05:43:37;;;;;;;5.63;5.00;;;3.60;99.90;;;;;;5039841;28;20213;-55
2023/11/29 05:46:04;;;;;;;7.13;5.00;;;3.60;99.90;;;;;;5042047;28;20256;-56
2023/11/29 05:48:31;;;;;;;5.80;5.17;;;3.60;99.90;;;;;;5042931;28;20309;-57
2023/11/29 05:50:59;;;;;;;6.03;5.13;;;3.70;99.90;;;;;;5040429;28;20236;-55
2023/11/29 05:53:26;;;;;;;6.73;5.57;;;3.60;99.90;;;;;;5039542;28;20202;-55
2023/11/29 05:55:52;;;;;;;7.17;5.50;;;3.60;99.90;;;;;;5040185;28;20237;-55
2023/11/29 05:58:19;;;;;;;6.13;5.50;;;3.60;99.90;;;;;;5042824;28;20201;-57
2023/11/29 06:00:46;;;;;;;5.83;4.77;;;3.60;99.90;;;;;;5042369;28;20213;-55
2023/11/29 06:03:13;;;;;;;5.47;4.73;;;3.70;99.90;;;;;;5039322;28;20225;-56
2023/11/29 06:05:39;;;;;;;8.47;4.70;;;3.70;99.90;;;;;;5039181;28;20304;-57
2023/11/29 06:08:07;;;;;;;6.53;5.10;;;3.70;99.90;;;;;;5041993;28;20205;-56
2023/11/29 06:10:34;;;;;;;5.60;5.00;;;3.70;99.90;;;;;;5042982;28;20205;-57
2023/11/29 06:13:03;;;;;;;6.13;5.23;;;3.70;99.90;;;;;;5040032;28;20209;-56
2023/11/29 06:15:29;;;;;;;5.83;5.20;;;3.70;99.90;;;;;;5038860;28;20238;-56
2023/11/29 06:17:56;;;;;;;6.57;5.23;;;3.60;99.90;;;;;;5040086;28;20695;-58
2023/11/29 06:20:23;;;;;;;5.90;5.30;;;3.60;99.90;;;;;;5042437;28;20208;-56
2023/11/29 06:22:49;;;;;;;6.20;5.40;;;3.60;99.90;;;;;;5041868;28;20221;-57
2023/11/29 06:25:17;;;;;;;6.83;6.07;;;3.60;99.90;;;;;;5039044;28;20272;-57
2023/11/29 06:27:45;;;;;;;5.77;5.17;;;3.60;99.90;;;;;;5038969;28;20210;-56
2023/11/29 06:30:12;;;;;;;6.33;5.17;;;3.70;99.90;;;;;;5042932;28;20202;-57
2023/11/29 06:32:41;;;;;;;6.87;5.67;;;3.70;99.90;;;;;;5042422;28;20256;-55
2023/11/29 06:35:11;;;;;;;5.63;4.97;;;3.80;99.90;;;;;;5039528;28;20272;-55
2023/11/29 06:37:37;;;;;;;6.30;5.57;;;3.80;99.90;;;;;;5039364;28;20211;-56
2023/11/29 06:40:10;;;;;;;7.50;5.77;;;3.90;99.90;;;;;;5045462;28;20217;-56
2023/11/29 06:42:39;;;;;;;7.60;6.07;;;3.90;99.90;;;;;;5046353;28;20239;-56
2023/11/29 06:45:07;;;;;;;26.47;14.80;;;4.00;99.90;;;;;;5043209;28;20229;-55
2023/11/29 06:47:34;;;;;;;11.47;7.37;;;4.00;99.90;;;;;;5042785;28;20202;-55
2023/11/29 06:50:00;;;;;;;8.80;6.30;;;4.10;99.90;;;;;;5044598;28;20596;-57
2023/11/29 06:52:27;;;;;;;9.50;5.77;;;4.10;99.90;;;;;;5045984;28;20645;-56
2023/11/29 06:54:54;;;;;;;6.57;5.47;;;4.10;99.90;;;;;;5045132;28;20236;-53
2023/11/29 06:57:20;;;;;;;6.57;5.40;;;4.10;99.90;;;;;;5042238;28;20209;-55
2023/11/29 06:59:48;;;;;;;6.47;5.70;;;4.20;99.90;;;;;;5042564;28;20206;-54
2023/11/29 07:02:15;;;;;;;5.77;5.17;;;4.10;99.90;;;;;;5046043;28;20248;-53
2023/11/29 07:04:43;;;;;;;6.63;5.57;;;4.10;99.90;;;;;;5045890;28;20226;-54
2023/11/29 07:07:10;;;;;;;7.17;5.50;;;4.00;99.90;;;;;;5042200;28;20252;-54
2023/11/29 07:09:37;;;;;;;8.43;6.80;;;4.00;99.90;;;;;;5042032;28;20245;-55
2023/11/29 07:12:04;;;;;;;6.53;5.70;;;4.00;99.90;;;;;;5044522;28;20215;-54
2023/11/29 07:14:32;;;;;;;11.00;7.43;;;4.00;99.90;;;;;;5045495;28;20346;-53
2023/11/29 07:17:00;;;;;;;7.50;6.07;;;3.90;99.90;;;;;;5043773;28;20221;-54
2023/11/29 07:19:26;;;;;;;9.17;6.87;;;4.00;99.90;;;;;;5042075;28;20207;-54
2023/11/29 07:21:53;;;;;;;6.97;5.90;;;4.00;99.90;;;;;;5042908;28;20584;-55
2023/11/29 07:24:20;;;;;;;6.87;5.90;;;4.00;99.90;;;;;;5045652;28;20206;-55
2023/11/29 07:26:47;;;;;;;7.27;6.03;;;4.00;99.90;;;;;;5045358;28;20210;-54
2023/11/29 07:29:13;;;;;;;6.80;5.97;;;4.00;99.90;;;;;;5045833;28;20286;-54
2023/11/29 07:31:40;;;;;;;7.60;6.47;;;4.00;99.90;;;;;;5045557;28;20217;-53
2023/11/29 07:34:08;;;;;;;7.53;5.83;;;3.90;99.90;;;;;;5042772;28;20273;-54
2023/11/29 07:36:35;;;;;;;7.10;6.03;;;4.00;99.90;;;;;;5041657;28;20305;-53
2023/11/29 07:39:01;;;;;;;9.37;6.23;;;4.00;99.90;;;;;;5043781;28;20218;-55
2023/11/29 07:41:28;;;;;;;8.27;6.07;;;4.10;99.90;;;;;;5044939;28;20217;-53
2023/11/29 07:43:55;;;;;;;8.23;7.03;;;4.20;99.90;;;;;;5044444;28;20237;-53
2023/11/29 07:46:21;;;;;;;8.67;6.77;;;4.30;99.90;;;;;;5041316;28;20569;-53
2023/11/29 07:48:48;;;;;;;6.70;5.93;;;4.30;99.90;;;;;;5041006;28;20217;-54
2023/11/29 07:51:16;;;;;;;8.00;6.27;;;4.40;99.90;;;;;;5044116;28;20588;-54
2023/11/29 07:53:44;;;;;;;7.40;6.00;;;4.50;99.90;;;;;;5044887;28;20206;-58
2023/11/29 07:56:11;;;;;;;10.80;6.33;;;4.50;99.90;;;;;;5041167;28;20257;-54
2023/11/29 07:58:38;;;;;;;7.87;5.70;;;4.50;99.90;;;;;;5041501;28;20248;-55
2023/11/29 08:01:05;;;;;;;6.50;5.80;;;4.50;99.90;;;;;;5043473;28;20210;-55
2023/11/29 08:03:32;;;;;;;7.73;5.67;;;4.50;99.90;;;;;;5044615;28;20212;-54
2023/11/29 08:05:58;;;;;;;7.83;5.37;;;4.60;99.90;;;;;;5042755;28;20230;-55
2023/11/29 08:08:26;;;;;;;7.23;5.77;;;4.80;99.90;;;;;;5040910;28;20210;-54
2023/11/29 08:10:53;;;;;;;7.10;5.93;;;4.90;99.90;;;;;;5041339;28;20218;-56
2023/11/29 08:13:20;;;;;;;7.53;5.30;;;5.00;99.90;;;;;;5044645;28;20206;-55
2023/11/29 08:15:46;;;;;;;8.77;5.77;;;5.00;99.90;;;;;;5043684;28;20232;-54
2023/11/29 08:18:14;;;;;;;7.00;5.30;;;5.00;99.90;;;;;;5040728;28;20590;-55
2023/11/29 08:20:40;;;;;;;6.53;5.50;;;5.10;99.90;;;;;;5040762;28;20346;-56
2023/11/29 08:23:07;;;;;;;9.53;7.73;;;5.20;99.90;;;;;;5043311;28;20202;-55
2023/11/29 08:25:35;;;;;;;7.13;5.67;;;5.30;99.90;;;;;;5044484;28;20588;-55
2023/11/29 08:28:02;;;;;;;6.27;5.10;;;5.30;99.90;;;;;;5044360;28;20619;-55
2023/11/29 08:30:28;;;;;;;6.10;5.47;;;5.30;99.90;;;;;;5044101;28;20205;-55
2023/11/29 08:32:57;;;;;;;5.77;4.70;;;5.50;99.90;;;;;;5043201;28;20210;-54
2023/11/29 08:35:23;;;;;;;6.23;5.37;;;5.60;99.90;;;;;;5040370;28;20226;-55
2023/11/29 08:37:50;;;;;;;6.17;4.90;;;5.70;99.90;;;;;;5040567;28;20218;-56
2023/11/29 08:40:17;;;;;;;6.17;4.80;;;5.80;99.90;;;;;;5044158;28;20229;-57
2023/11/29 08:42:45;;;;;;;5.70;4.60;;;5.90;99.90;;;;;;5044150;28;20213;-55
2023/11/29 08:45:12;;;;;;;6.13;5.00;;;6.00;99.90;;;;;;5040718;28;20237;-56
2023/11/29 08:47:40;;;;;;;9.50;5.00;;;6.10;99.90;;;;;;5039800;28;20741;-56
2023/11/29 08:50:07;;;;;;;7.17;4.70;;;6.20;99.90;;;;;;5042910;28;20295;-55
2023/11/29 08:52:34;;;;;;;6.07;4.53;;;6.20;99.90;;;;;;5043816;28;20202;-55
2023/11/29 08:55:00;;;;;;;5.83;4.10;;;6.20;99.90;;;;;;5042031;28;20715;-55
2023/11/29 08:57:29;;;;;;;6.27;4.43;;;6.10;99.90;;;;;;5040061;28;20218;-54
2023/11/29 08:59:57;;;;;;;6.07;4.50;;;6.00;99.90;;;;;;5041104;28;20291;-55
2023/11/29 09:02:24;;;;;;;5.67;4.10;;;6.00;99.90;;;;;;5043060;28;20213;-55
2023/11/29 09:04:52;;;;;;;5.13;4.40;;;6.00;99.90;;;;;;5042939;28;20229;-55
2023/11/29 09:07:19;;;;;;;5.90;4.17;;;6.00;99.90;;;;;;5039920;28;20558;-55
2023/11/29 09:09:47;;;;;;;7.63;4.33;;;6.10;99.90;;;;;;5040061;28;20210;-56
2023/11/29 09:12:14;;;;;;;15.20;11.03;;;6.10;99.90;;;;;;5043050;28;20198;-56
2023/11/29 09:14:42;;;;;;;10.80;6.67;;;6.20;99.90;;;;;;5043309;28;20232;-57
2023/11/29 09:17:10;;;;;;;6.30;4.67;;;6.30;99.90;;;;;;5040409;28;20279;-56
2023/11/29 09:19:37;;;;;;;5.17;4.17;;;6.20;99.90;;;;;;5040021;28;20210;-56
2023/11/29 09:22:04;;;;;;;4.53;3.77;;;6.20;99.90;;;;;;5041530;28;20206;-64
2023/11/29 09:24:31;;;;;;;7.07;3.87;;;6.30;99.90;;;;;;5042692;28;20608;-64
2023/11/29 09:26:59;;;;;;;4.23;3.77;;;6.30;99.90;;;;;;5047105;28;20741;-59
2023/11/29 09:29:26;;;;;;;17.90;5.37;;;6.30;99.90;;;;;;5039059;28;20286;-58
2023/11/29 09:31:53;;;;;;;5.03;3.50;;;6.40;99.90;;;;;;5039802;28;20206;-58
2023/11/29 09:34:22;;;;;;;5.93;4.80;;;6.50;99.90;;;;;;5042385;28;20197;-59
2023/11/29 09:36:49;;;;;;;5.23;3.80;;;6.50;99.90;;;;;;5042946;28;20221;-59
2023/11/29 09:39:17;;;;;;;6.30;3.70;;;6.50;99.90;;;;;;5039425;28;20202;-58
2023/11/29 09:41:45;;;;;;;4.23;3.80;;;6.60;99.90;;;;;;5039201;28;20214;-58
2023/11/29 09:44:12;;;;;;;6.33;4.70;;;6.60;99.90;;;;;;5047299;28;20210;-58
2023/11/29 09:46:39;;;;;;;6.37;4.90;;;6.60;99.90;;;;;;5038680;28;20210;-58
2023/11/29 09:49:07;;;;;;;4.17;3.63;;;6.60;99.90;;;;;;5041208;28;20206;-60
2023/11/29 09:51:35;;;;;;;5.57;3.73;;;6.60;99.90;;;;;;5042494;28;20201;-59
2023/11/29 09:54:03;;;;;;;5.33;3.10;;;6.60;99.90;;;;;;5040999;28;20240;-60
2023/11/29 09:56:30;;;;;;;7.73;5.30;;;6.70;99.90;;;;;;5038713;28;20233;-55
2023/11/29 09:58:57;;;;;;;5.13;3.90;;;6.70;99.90;;;;;;5039908;28;20206;-55
2023/11/29 10:01:24;;;;;;;4.90;3.73;;;6.70;99.90;;;;;;5042488;28;20225;-54
2023/11/29 10:04:03;;;;;;;4.07;3.03;;;6.60;99.90;;;;;;5042620;28;20213;-54
2023/11/29 10:06:30;;;;;;;4.50;3.77;;;6.60;99.90;;;;;;5044121;28;20446;-55
2023/11/29 10:08:58;;;;;;;3.13;2.83;;;6.60;99.90;;;;;;5041831;28;20202;-54
2023/11/29 10:11:25;;;;;;;3.73;2.97;;;6.60;99.90;;;;;;5039369;28;20206;-55
2023/11/29 10:13:52;;;;;;;4.80;2.87;;;6.40;99.90;;;;;;5038091;28;20298;-55
2023/11/29 10:16:20;;;;;;;4.83;3.23;;;6.50;99.90;;;;;;5042180;28;20240;-54
2023/11/29 10:18:48;;;;;;;4.20;3.10;;;6.60;99.90;;;;;;5042733;28;20205;-54
2023/11/29 10:21:15;;;;;;;3.80;2.97;;;6.60;99.90;;;;;;5039372;28;20293;-54
2023/11/29 10:23:44;;;;;;;3.43;2.83;;;6.60;99.90;;;;;;5038862;28;20730;-54
2023/11/29 10:26:12;;;;;;;4.27;2.87;;;6.60;99.90;;;;;;5041710;28;20232;-54
2023/11/29 10:28:40;;;;;;;6.00;3.00;;;6.60;99.90;;;;;;5043483;28;20256;-54
2023/11/29 10:31:08;;;;;;;3.37;3.07;;;6.50;99.90;;;;;;5041063;28;20215;-54
2023/11/29 10:33:35;;;;;;;3.87;3.07;;;6.40;99.90;;;;;;5039220;28;20253;-54
2023/11/29 10:36:03;;;;;;;6.33;5.07;;;6.40;99.90;;;;;;5039641;28;20257;-55
2023/11/29 10:38:34;;;;;;;32.40;20.77;;;6.50;99.90;;;;;;5042103;28;20217;-55
2023/11/29 10:41:01;;;;;;;6.00;4.13;;;6.60;99.90;;;;;;5041112;28;20216;-55
2023/11/29 10:43:34;;;;;;;8.83;7.03;;;6.70;99.90;;;;;;5039153;28;20226;-55
2023/11/29 10:46:07;;;;;;;3.67;3.00;;;7.00;99.90;;;;;;5039936;28;20367;-55
2023/11/29 10:48:37;;;;;;;3.40;3.10;;;7.20;99.90;;;;;;5042329;28;20205;-55
2023/11/29 10:51:05;;;;;;;2.87;2.57;;;7.40;99.90;;;;;;5040845;28;20587;-55
2023/11/29 10:53:32;;;;;;;4.17;3.00;;;7.60;99.90;;;;;;5039112;28;20588;-55
2023/11/29 10:56:00;;;;;;;4.03;3.10;;;7.80;99.90;;;;;;5039378;28;20234;-55
2023/11/29 10:58:38;;;;;;;2.93;2.57;;;7.70;99.90;;;;;;5042590;28;20201;-55
2023/11/29 11:01:05;;;;;;;3.00;2.60;;;7.50;99.90;;;;;;5040715;28;20205;-54
2023/11/29 11:03:39;;;;;;;2.97;2.63;;;7.20;99.90;;;;;;5039143;28;20676;-54
2023/11/29 11:06:35;;;;;;;4.50;2.63;;;7.10;99.90;;;;;;5040635;28;20417;-55
2023/11/29 11:09:04;;;;;;;4.20;2.90;;;7.20;99.90;;;;;;5040933;28;20241;-55
2023/11/29 11:11:44;;;;;;;3.70;2.97;;;7.00;99.90;;;;;;5038387;28;20684;-56
2023/11/29 11:14:19;;;;;;;5.27;3.17;;;6.80;99.90;;;;;;5040601;28;20268;-54
2023/11/29 11:16:57;;;;;;;3.30;2.90;;;6.70;99.90;;;;;;5041646;28;20290;-56
2023/11/29 11:19:31;;;;;;;6.20;3.87;;;6.70;99.90;;;;;;5042712;28;20397;-55
2023/11/29 11:21:58;;;;;;;3.67;3.20;;;6.80;99.90;;;;;;5041323;28;20206;-55
2023/11/29 11:24:59;;;;;;;3.43;3.00;;;6.80;99.90;;;;;;5040017;28;20202;-55
2023/11/29 11:27:29;;;;;;;3.77;3.40;;;6.70;99.90;;;;;;5046461;28;20198;-56
2023/11/29 11:29:57;;;;;;;6.53;4.60;;;6.60;99.90;;;;;;5045387;28;20584;-56
2023/11/29 11:32:42;;;;;;;8.10;5.67;;;6.50;99.90;;;;;;5042495;28;20206;-56
2023/11/29 11:35:24;;;;;;;6.37;4.17;;;6.50;99.90;;;;;;5042986;28;20222;-56
2023/11/29 11:37:54;;;;;;;3.17;2.87;;;6.60;99.90;;;;;;5045321;28;20280;-56
2023/11/29 11:40:23;;;;;;;6.00;3.07;;;6.70;99.90;;;;;;5041884;28;20229;-57
2023/11/29 11:42:50;;;;;;;3.97;3.00;;;6.70;99.90;;;;;;5041797;28;20674;-56
2023/11/29 11:45:18;;;;;;;6.67;3.80;;;6.70;99.90;;;;;;5045271;28;20249;-56
2023/11/29 11:47:45;;;;;;;4.40;3.47;;;6.70;99.90;;;;;;5045185;28;20209;-56
2023/11/29 11:50:13;;;;;;;3.50;3.20;;;6.80;99.90;;;;;;5042988;28;20326;-55
2023/11/29 11:52:40;;;;;;;4.30;3.60;;;7.00;99.90;;;;;;5041872;28;20639;-56
2023/11/29 11:55:09;;;;;;;15.67;13.03;;;7.10;99.90;;;;;;5042965;28;20230;-57
2023/11/29 11:57:36;;;;;;;3.47;2.93;;;7.20;99.90;;;;;;5044847;28;20221;-56
2023/11/29 12:00:05;;;;;;;5.83;3.10;;;7.30;99.90;;;;;;5044266;28;20224;-57
2023/11/29 12:02:34;;;;;;;3.50;3.10;;;7.40;99.90;;;;;;5041603;28;20283;-56
2023/11/29 12:05:01;;;;;;;6.27;3.20;;;7.60;99.90;;;;;;5041660;28;20257;-57
2023/11/29 12:07:28;;;;;;;4.13;3.23;;;7.70;99.90;;;;;;5044997;28;20202;-57
2023/11/29 12:09:55;;;;;;;24.00;4.77;;;7.70;99.90;;;;;;5044187;28;20209;-57
2023/11/29 12:12:23;;;;;;;10.97;3.97;;;7.70;99.90;;;;;;5044852;28;20198;-57
2023/11/29 12:14:51;;;;;;;8.67;2.77;;;7.70;99.90;;;;;;5044771;28;20225;-57
2023/11/29 12:17:18;;;;;;;3.00;2.70;;;7.60;99.90;;;;;;5041340;28;20232;-57
2023/11/29 12:19:48;;;;;;;3.47;2.70;;;7.60;99.90;;;;;;5041321;28;20206;-56
2023/11/29 12:22:17;;;;;;;3.70;3.03;;;7.50;99.90;;;;;;5043144;28;20282;-56
2023/11/29 12:24:45;;;;;;;4.77;2.83;;;7.40;99.90;;;;;;5044930;28;20225;-57
2023/11/29 12:27:14;;;;;;;3.70;2.67;;;7.30;99.90;;;;;;5042221;28;20205;-57
2023/11/29 12:29:43;;;;;;;3.33;2.93;;;7.30;99.90;;;;;;5041446;28;20304;-56
2023/11/29 12:32:11;;;;;;;2.70;2.50;;;7.20;99.90;;;;;;5042722;28;20226;-57
2023/11/29 12:34:41;;;;;;;3.87;3.00;;;7.10;99.90;;;;;;5044234;28;20221;-56
2023/11/29 12:37:12;;;;;;;4.33;3.20;;;7.50;99.90;;;;;;5041361;28;20225;-57
2023/11/29 12:39:39;;;;;;;3.10;2.47;;;7.60;99.90;;;;;;5040843;28;20671;-56
2023/11/29 12:42:09;;;;;;;5.20;3.60;;;7.70;99.90;;;;;;5041607;28;20207;-56
2023/11/29 12:44:36;;;;;;;52.43;9.83;;;7.70;99.90;;;;;;5044115;28;20244;-56
2023/11/29 12:47:03;;;;;;;4.13;2.37;;;7.70;99.90;;;;;;5042901;28;20206;-57
2023/11/29 12:49:31;;;;;;;3.20;2.13;;;7.60;99.90;;;;;;5040709;28;20290;-57
2023/11/29 12:51:58;;;;;;;3.30;2.30;;;7.50;99.90;;;;;;5040565;28;20214;-57
2023/11/29 12:54:26;;;;;;;3.03;2.20;;;7.40;99.90;;;;;;5043873;28;20208;-57
2023/11/29 12:56:53;;;;;;;4.43;2.37;;;7.40;99.90;;;;;;5043733;28;20233;-57